18/11/2019 - Scotiabank Arena, Toronto, ON. Temporada Regular

Toronto Raptors - 132

Charlotte Hornets - 96

  • Árbitros: Scott Wall,Tony Brown,Phenizee Ransom
  • Asistencia: 19800 espectadores
  • Duración del partido: 2:08 horas
  • Número de empates durante el partido: 4
  • Cambios de líder: 8 veces

Dobles-Dobles

Tabla estadísticas

Charlotte Hornets - 96
Jugador Min TC T3 TL +/- rebO rebD reb asis fp rob per tap tr Val ptos
Michael Kidd-Gilchrist 8:21 0/3 0/2 2/2 -7 0 2 2 1 2 0 0 0 0 2 2
Dwayne Bacon 8:21 2/4 1/2 0/0 -7 0 0 0 0 0 0 0 0 0 3 5
Miles Bridges 27:43 5/10 2/5 1/1 -29 2 3 5 2 0 1 1 1 0 16 13
Terry Rozier 26:23 4/11 2/6 0/0 -24 1 2 3 4 2 0 2 0 0 8 10
Devonte Graham 26:07 4/9 3/7 0/0 -15 1 1 2 5 2 1 4 0 0 10 11
Nicolas Batum 24:54 1/4 1/4 0/0 -7 1 5 6 5 2 0 2 1 0 10 3
Marvin Williams 23:30 4/5 3/4 3/3 -2 0 4 4 1 1 0 0 2 0 20 14
Malik Monk 22:30 2/9 0/5 3/4 -15 1 2 3 3 1 0 4 0 0 1 7
Bismack Biyombo 19:55 5/7 0/0 3/8 2 0 2 2 0 1 0 0 2 0 10 13
PJ Washington 16:35 2/5 1/3 0/0 -27 0 0 0 2 5 0 1 0 0 3 5
Cody Zeller 15:39 3/6 2/3 0/0 -23 2 3 5 0 1 0 2 1 0 9 8
Willy Hernangomez 10:01 1/2 0/1 3/6 -13 1 2 3 1 0 0 1 1 0 5 5
Cody Martin 10:01 0/3 0/3 0/0 -13 0 2 2 2 2 1 2 0 0 0 0
Total / / / -180 97
Toronto Raptors - 132
Jugador Min TC T3 TL +/- rebO rebD reb asis fp rob per tap tr Val ptos
Dewan Hernandez 6:22 1/2 0/1 0/0 2 0 4 4 0 3 1 1 0 0 5 2
Malcolm Miller 6:22 2/2 1/1 0/0 2 0 1 1 0 1 0 0 0 0 6 5
Oshae Brissett 5:19 0/2 0/0 0/0 -2 0 0 0 0 0 0 0 0 0 -2 0
Pascal Siakam 34:41 7/14 3/6 3/3 36 2 6 8 5 1 1 0 1 0 28 20
Fred VanVleet 30:47 3/12 2/6 3/4 19 1 3 4 8 2 5 2 0 0 16 11
Marc Gasol 29:13 2/4 1/3 0/0 26 1 7 8 9 1 0 0 1 0 21 5
OG Anunoby 27:19 10/13 4/7 0/0 25 0 5 5 2 4 1 3 0 0 26 24
Norman Powell 25:15 7/15 2/8 1/2 27 1 1 2 6 0 2 1 0 0 17 17
Terence Davis 20:40 5/7 4/5 2/2 11 0 1 1 7 5 1 2 0 0 21 16
Rondae Hollis-Jefferson 20:12 6/10 0/0 3/3 11 4 4 8 2 4 0 0 0 0 21 15
Chris Boucher 18:15 5/11 1/2 0/1 10 7 4 11 0 3 1 1 0 0 15 11
Matt Thomas 15:33 2/5 2/4 0/0 13 0 1 1 1 1 1 0 0 0 6 6
Total / / / 180 180



temporada 201920

Calendario por equipos

Selecciona equipo NBA y tipo partidos

enfrentamientos equipos

Selecciona enfrentamiento equipos NBA